Yukon, Pennsylvania
Current Conditions -  °F | °C
As of 7:50 AM on Wednesday 26 Nov 2014 (Local Time) from KLBE Reporting Station
Overcast Overcast  
Wind Chill: 24°   Ceiling: 4500
Heat Index: 32°   Visibility: 15mi
Dew Point: 28°   Wind: 9mph
Humidity: 87%   Direction: 90°E
Pressure: 30.09"   Gusts: NA
Location:  40.21°N, 79.68°W
Report Text: KLBE 261250Z 09008KT 15SM BKN045 OVC150 00/M02 A3009
Loading
Personal Weather Stations






























Interactive Weather Map New forecast layout! Learn more

10-Day Weather Forecast

Advertisements
Track Severe Weather on mobile